sensor_id;sensor_type;location;lat;lon;timestamp;P1;durP1;ratioP1;P2;durP2;ratioP2
11197;SDS011;5655;48.744;9.162;2023-05-10T00:01:37;1.48;;;1.02;;
11197;SDS011;5655;48.744;9.162;2023-05-10T00:04:02;1.90;;;1.23;;
11197;SDS011;5655;48.744;9.162;2023-05-10T00:06:27;0.88;;;0.85;;
11197;SDS011;5655;48.744;9.162;2023-05-10T00:08:52;1.10;;;1.00;;
11197;SDS011;5655;48.744;9.162;2023-05-10T00:11:18;1.50;;;0.88;;
11197;SDS011;5655;48.744;9.162;2023-05-10T00:13:43;1.52;;;1.00;;
11197;SDS011;5655;48.744;9.162;2023-05-10T00:16:08;2.53;;;1.15;;
11197;SDS011;5655;48.744;9.162;2023-05-10T00:18:34;1.23;;;0.90;;
11197;SDS011;5655;48.744;9.162;2023-05-10T00:20:59;2.90;;;0.68;;
11197;SDS011;5655;48.744;9.162;2023-05-10T00:23:25;0.70;;;0.70;;
11197;SDS011;5655;48.744;9.162;2023-05-10T00:25:50;2.38;;;0.80;;
11197;SDS011;5655;48.744;9.162;2023-05-10T00:28:15;0.80;;;0.80;;
11197;SDS011;5655;48.744;9.162;2023-05-10T00:30:40;0.73;;;0.73;;
11197;SDS011;5655;48.744;9.162;2023-05-10T00:33:06;0.70;;;0.70;;
11197;SDS011;5655;48.744;9.162;2023-05-10T00:35:31;0.63;;;0.63;;
11197;SDS011;5655;48.744;9.162;2023-05-10T00:37:57;1.50;;;0.43;;
11197;SDS011;5655;48.744;9.162;2023-05-10T00:40:22;1.17;;;0.40;;
11197;SDS011;5655;48.744;9.162;2023-05-10T00:42:48;1.23;;;0.40;;
11197;SDS011;5655;48.744;9.162;2023-05-10T00:45:13;0.77;;;0.57;;
11197;SDS011;5655;48.744;9.162;2023-05-10T00:47:38;1.38;;;0.45;;
11197;SDS011;5655;48.744;9.162;2023-05-10T00:50:04;0.40;;;0.40;;
11197;SDS011;5655;48.744;9.162;2023-05-10T00:52:31;1.85;;;1.33;;
11197;SDS011;5655;48.744;9.162;2023-05-10T00:54:56;2.70;;;0.60;;
11197;SDS011;5655;48.744;9.162;2023-05-10T00:57:22;0.50;;;0.50;;
11197;SDS011;5655;48.744;9.162;2023-05-10T00:59:47;0.68;;;0.50;;
11197;SDS011;5655;48.744;9.162;2023-05-10T01:02:13;0.65;;;0.45;;
11197;SDS011;5655;48.744;9.162;2023-05-10T01:04:38;0.50;;;0.50;;
11197;SDS011;5655;48.744;9.162;2023-05-10T01:07:04;2.60;;;0.40;;
11197;SDS011;5655;48.744;9.162;2023-05-10T01:12:51;0.55;;;0.43;;
11197;SDS011;5655;48.744;9.162;2023-05-10T01:15:17;1.08;;;0.40;;
11197;SDS011;5655;48.744;9.162;2023-05-10T01:17:43;0.88;;;0.20;;
11197;SDS011;5655;48.744;9.162;2023-05-10T01:20:10;0.80;;;0.50;;
11197;SDS011;5655;48.744;9.162;2023-05-10T01:25:11;0.30;;;0.30;;
11197;SDS011;5655;48.744;9.162;2023-05-10T01:31:03;0.30;;;0.30;;
11197;SDS011;5655;48.744;9.162;2023-05-10T01:34:32;0.20;;;0.20;;
11197;SDS011;5655;48.744;9.162;2023-05-10T01:36:43;0.40;;;0.32;;
11197;SDS011;5655;48.744;9.162;2023-05-10T01:44:40;2.15;;;0.50;;
11197;SDS011;5655;48.744;9.162;2023-05-10T01:47:57;1.33;;;0.30;;
11197;SDS011;5655;48.744;9.162;2023-05-10T01:50:15;0.40;;;0.40;;
11197;SDS011;5655;48.744;9.162;2023-05-10T01:52:42;0.28;;;0.28;;
11197;SDS011;5655;48.744;9.162;2023-05-10T01:55:13;0.47;;;0.40;;
11197;SDS011;5655;48.744;9.162;2023-05-10T01:57:42;0.40;;;0.40;;
11197;SDS011;5655;48.744;9.162;2023-05-10T02:00:09;0.30;;;0.30;;
11197;SDS011;5655;48.744;9.162;2023-05-10T02:02:37;0.60;;;0.40;;
11197;SDS011;5655;48.744;9.162;2023-05-10T02:05:07;1.55;;;0.40;;
11197;SDS011;5655;48.744;9.162;2023-05-10T02:07:35;0.30;;;0.30;;
11197;SDS011;5655;48.744;9.162;2023-05-10T02:10:02;0.38;;;0.38;;
11197;SDS011;5655;48.744;9.162;2023-05-10T02:12:32;0.47;;;0.40;;
11197;SDS011;5655;48.744;9.162;2023-05-10T02:15:01;0.40;;;0.40;;
11197;SDS011;5655;48.744;9.162;2023-05-10T02:17:30;1.60;;;0.50;;
11197;SDS011;5655;48.744;9.162;2023-05-10T02:19:56;0.30;;;0.30;;
11197;SDS011;5655;48.744;9.162;2023-05-10T02:22:24;0.85;;;0.30;;
11197;SDS011;5655;48.744;9.162;2023-05-10T02:24:51;0.40;;;0.40;;
11197;SDS011;5655;48.744;9.162;2023-05-10T02:27:18;1.05;;;0.30;;
11197;SDS011;5655;48.744;9.162;2023-05-10T02:29:45;0.82;;;0.52;;
11197;SDS011;5655;48.744;9.162;2023-05-10T02:32:11;0.30;;;0.30;;
11197;SDS011;5655;48.744;9.162;2023-05-10T02:34:37;0.70;;;0.32;;
11197;SDS011;5655;48.744;9.162;2023-05-10T02:37:04;0.57;;;0.30;;
11197;SDS011;5655;48.744;9.162;2023-05-10T02:39:31;0.50;;;0.50;;
11197;SDS011;5655;48.744;9.162;2023-05-10T02:41:57;0.40;;;0.40;;
11197;SDS011;5655;48.744;9.162;2023-05-10T02:44:23;0.50;;;0.50;;
11197;SDS011;5655;48.744;9.162;2023-05-10T02:46:52;1.70;;;0.70;;
11197;SDS011;5655;48.744;9.162;2023-05-10T02:49:17;0.75;;;0.60;;
11197;SDS011;5655;48.744;9.162;2023-05-10T02:51:45;0.63;;;0.52;;
11197;SDS011;5655;48.744;9.162;2023-05-10T02:54:16;0.80;;;0.50;;
11197;SDS011;5655;48.744;9.162;2023-05-10T02:56:50;0.63;;;0.55;;
11197;SDS011;5655;48.744;9.162;2023-05-10T02:59:18;1.05;;;0.57;;
11197;SDS011;5655;48.744;9.162;2023-05-10T03:01:44;1.88;;;0.70;;
11197;SDS011;5655;48.744;9.162;2023-05-10T03:04:09;1.23;;;0.68;;
11197;SDS011;5655;48.744;9.162;2023-05-10T03:06:35;0.85;;;0.70;;
11197;SDS011;5655;48.744;9.162;2023-05-10T03:09:01;2.03;;;0.68;;
11197;SDS011;5655;48.744;9.162;2023-05-10T03:11:43;1.02;;;0.80;;
11197;SDS011;5655;48.744;9.162;2023-05-10T03:17:11;0.75;;;0.60;;
11197;SDS011;5655;48.744;9.162;2023-05-10T03:19:58;0.82;;;0.82;;
11197;SDS011;5655;48.744;9.162;2023-05-10T03:22:37;1.33;;;0.80;;
11197;SDS011;5655;48.744;9.162;2023-05-10T03:25:06;1.35;;;0.90;;
11197;SDS011;5655;48.744;9.162;2023-05-10T03:27:33;5.70;;;1.67;;
11197;SDS011;5655;48.744;9.162;2023-05-10T03:30:01;4.05;;;1.70;;
11197;SDS011;5655;48.744;9.162;2023-05-10T03:32:28;5.22;;;1.40;;
11197;SDS011;5655;48.744;9.162;2023-05-10T03:34:55;1.92;;;1.17;;
11197;SDS011;5655;48.744;9.162;2023-05-10T03:37:20;5.10;;;1.40;;
11197;SDS011;5655;48.744;9.162;2023-05-10T03:39:45;1.98;;;1.30;;
11197;SDS011;5655;48.744;9.162;2023-05-10T03:42:11;1.73;;;1.20;;
11197;SDS011;5655;48.744;9.162;2023-05-10T03:44:37;1.42;;;0.98;;
11197;SDS011;5655;48.744;9.162;2023-05-10T03:47:03;1.45;;;1.00;;
11197;SDS011;5655;48.744;9.162;2023-05-10T03:49:28;1.23;;;1.13;;
11197;SDS011;5655;48.744;9.162;2023-05-10T03:51:54;8.55;;;5.60;;
11197;SDS011;5655;48.744;9.162;2023-05-10T03:54:19;7.15;;;3.35;;
11197;SDS011;5655;48.744;9.162;2023-05-10T03:56:45;3.78;;;1.90;;
11197;SDS011;5655;48.744;9.162;2023-05-10T03:59:12;4.70;;;1.30;;
11197;SDS011;5655;48.744;9.162;2023-05-10T04:01:38;2.60;;;1.30;;
11197;SDS011;5655;48.744;9.162;2023-05-10T04:04:03;1.73;;;1.20;;
11197;SDS011;5655;48.744;9.162;2023-05-10T04:06:29;3.20;;;1.55;;
11197;SDS011;5655;48.744;9.162;2023-05-10T04:08:54;1.52;;;1.42;;
11197;SDS011;5655;48.744;9.162;2023-05-10T04:11:20;1.92;;;1.30;;
11197;SDS011;5655;48.744;9.162;2023-05-10T04:13:46;3.92;;;1.35;;
11197;SDS011;5655;48.744;9.162;2023-05-10T04:16:12;2.55;;;1.17;;
11197;SDS011;5655;48.744;9.162;2023-05-10T04:18:37;1.40;;;1.30;;
11197;SDS011;5655;48.744;9.162;2023-05-10T04:21:02;1.30;;;1.20;;
11197;SDS011;5655;48.744;9.162;2023-05-10T04:23:28;1.63;;;1.10;;
11197;SDS011;5655;48.744;9.162;2023-05-10T04:25:58;1.45;;;1.20;;
11197;SDS011;5655;48.744;9.162;2023-05-10T04:28:25;3.25;;;1.42;;
11197;SDS011;5655;48.744;9.162;2023-05-10T04:30:50;1.67;;;1.27;;
11197;SDS011;5655;48.744;9.162;2023-05-10T04:33:16;1.27;;;1.10;;
11197;SDS011;5655;48.744;9.162;2023-05-10T04:35:41;1.73;;;1.15;;
11197;SDS011;5655;48.744;9.162;2023-05-10T04:38:06;1.35;;;1.23;;
11197;SDS011;5655;48.744;9.162;2023-05-10T04:40:31;1.25;;;1.13;;
11197;SDS011;5655;48.744;9.162;2023-05-10T04:42:57;1.27;;;1.10;;
11197;SDS011;5655;48.744;9.162;2023-05-10T04:45:22;1.58;;;1.05;;
11197;SDS011;5655;48.744;9.162;2023-05-10T04:47:47;3.40;;;1.38;;
11197;SDS011;5655;48.744;9.162;2023-05-10T04:50:13;1.17;;;1.10;;
11197;SDS011;5655;48.744;9.162;2023-05-10T04:52:38;2.55;;;1.10;;
11197;SDS011;5655;48.744;9.162;2023-05-10T04:55:03;2.92;;;1.50;;
11197;SDS011;5655;48.744;9.162;2023-05-10T04:57:29;1.58;;;1.20;;
11197;SDS011;5655;48.744;9.162;2023-05-10T04:59:54;1.52;;;1.05;;
11197;SDS011;5655;48.744;9.162;2023-05-10T05:02:20;1.80;;;1.27;;
11197;SDS011;5655;48.744;9.162;2023-05-10T05:04:45;1.60;;;1.30;;
11197;SDS011;5655;48.744;9.162;2023-05-10T05:07:11;3.03;;;1.42;;
11197;SDS011;5655;48.744;9.162;2023-05-10T05:09:36;3.58;;;1.40;;
11197;SDS011;5655;48.744;9.162;2023-05-10T05:12:01;1.38;;;1.15;;
11197;SDS011;5655;48.744;9.162;2023-05-10T05:14:27;3.40;;;1.63;;
11197;SDS011;5655;48.744;9.162;2023-05-10T05:16:52;4.22;;;1.60;;
11197;SDS011;5655;48.744;9.162;2023-05-10T05:19:18;2.63;;;1.45;;
11197;SDS011;5655;48.744;9.162;2023-05-10T05:21:43;1.48;;;1.30;;
11197;SDS011;5655;48.744;9.162;2023-05-10T05:24:08;1.52;;;1.30;;
11197;SDS011;5655;48.744;9.162;2023-05-10T05:26:35;1.77;;;1.20;;
11197;SDS011;5655;48.744;9.162;2023-05-10T05:29:00;6.75;;;1.63;;
11197;SDS011;5655;48.744;9.162;2023-05-10T05:31:26;2.25;;;1.10;;
11197;SDS011;5655;48.744;9.162;2023-05-10T05:33:51;2.35;;;1.17;;
11197;SDS011;5655;48.744;9.162;2023-05-10T05:36:17;2.05;;;1.67;;
11197;SDS011;5655;48.744;9.162;2023-05-10T05:38:42;3.00;;;1.77;;
11197;SDS011;5655;48.744;9.162;2023-05-10T05:41:08;2.60;;;1.50;;
11197;SDS011;5655;48.744;9.162;2023-05-10T05:43:33;3.13;;;1.75;;
11197;SDS011;5655;48.744;9.162;2023-05-10T05:45:59;1.55;;;1.40;;
11197;SDS011;5655;48.744;9.162;2023-05-10T05:48:24;1.60;;;1.48;;
11197;SDS011;5655;48.744;9.162;2023-05-10T05:50:49;2.85;;;1.52;;
11197;SDS011;5655;48.744;9.162;2023-05-10T05:53:15;4.10;;;2.00;;
11197;SDS011;5655;48.744;9.162;2023-05-10T05:55:40;1.80;;;1.50;;
11197;SDS011;5655;48.744;9.162;2023-05-10T05:58:16;4.60;;;1.60;;
11197;SDS011;5655;48.744;9.162;2023-05-10T06:00:41;6.20;;;2.15;;
11197;SDS011;5655;48.744;9.162;2023-05-10T06:03:06;2.80;;;1.70;;
11197;SDS011;5655;48.744;9.162;2023-05-10T06:05:32;2.30;;;1.80;;
11197;SDS011;5655;48.744;9.162;2023-05-10T06:07:59;3.70;;;1.63;;
11197;SDS011;5655;48.744;9.162;2023-05-10T06:10:25;1.85;;;1.73;;
11197;SDS011;5655;48.744;9.162;2023-05-10T06:12:50;1.85;;;1.58;;
11197;SDS011;5655;48.744;9.162;2023-05-10T06:15:15;3.50;;;1.80;;
11197;SDS011;5655;48.744;9.162;2023-05-10T06:17:41;2.13;;;1.90;;
11197;SDS011;5655;48.744;9.162;2023-05-10T06:20:08;2.85;;;1.98;;
11197;SDS011;5655;48.744;9.162;2023-05-10T06:22:34;2.40;;;1.98;;
11197;SDS011;5655;48.744;9.162;2023-05-10T06:24:59;3.67;;;1.52;;
11197;SDS011;5655;48.744;9.162;2023-05-10T06:27:24;5.00;;;1.63;;
11197;SDS011;5655;48.744;9.162;2023-05-10T06:29:50;2.38;;;1.67;;
11197;SDS011;5655;48.744;9.162;2023-05-10T06:32:15;2.38;;;1.60;;
11197;SDS011;5655;48.744;9.162;2023-05-10T06:34:40;3.58;;;1.70;;
11197;SDS011;5655;48.744;9.162;2023-05-10T06:37:05;2.97;;;1.60;;
11197;SDS011;5655;48.744;9.162;2023-05-10T06:39:31;3.05;;;1.73;;
11197;SDS011;5655;48.744;9.162;2023-05-10T06:41:56;3.53;;;1.92;;
11197;SDS011;5655;48.744;9.162;2023-05-10T06:44:21;2.17;;;1.80;;
11197;SDS011;5655;48.744;9.162;2023-05-10T06:46:47;2.78;;;1.73;;
11197;SDS011;5655;48.744;9.162;2023-05-10T06:49:12;6.00;;;3.23;;
11197;SDS011;5655;48.744;9.162;2023-05-10T06:51:37;2.63;;;2.00;;
11197;SDS011;5655;48.744;9.162;2023-05-10T06:54:03;5.17;;;2.20;;
11197;SDS011;5655;48.744;9.162;2023-05-10T06:56:28;2.47;;;2.20;;
11197;SDS011;5655;48.744;9.162;2023-05-10T06:58:53;2.80;;;2.30;;
11197;SDS011;5655;48.744;9.162;2023-05-10T07:01:19;2.03;;;1.90;;
11197;SDS011;5655;48.744;9.162;2023-05-10T07:03:44;3.37;;;2.10;;
11197;SDS011;5655;48.744;9.162;2023-05-10T07:06:09;2.23;;;2.03;;
11197;SDS011;5655;48.744;9.162;2023-05-10T07:08:35;3.57;;;2.00;;
11197;SDS011;5655;48.744;9.162;2023-05-10T07:11:04;3.22;;;1.85;;
11197;SDS011;5655;48.744;9.162;2023-05-10T07:13:32;2.17;;;1.70;;
11197;SDS011;5655;48.744;9.162;2023-05-10T07:15:58;1.95;;;1.70;;
11197;SDS011;5655;48.744;9.162;2023-05-10T07:18:25;2.47;;;2.00;;
11197;SDS011;5655;48.744;9.162;2023-05-10T07:20:50;2.77;;;1.90;;
11197;SDS011;5655;48.744;9.162;2023-05-10T07:23:16;3.00;;;1.93;;
11197;SDS011;5655;48.744;9.162;2023-05-10T07:25:44;1.88;;;1.60;;
11197;SDS011;5655;48.744;9.162;2023-05-10T07:28:14;4.00;;;1.87;;
11197;SDS011;5655;48.744;9.162;2023-05-10T07:30:40;2.72;;;1.90;;
11197;SDS011;5655;48.744;9.162;2023-05-10T07:33:06;2.60;;;1.60;;
11197;SDS011;5655;48.744;9.162;2023-05-10T07:35:32;3.08;;;1.50;;
11197;SDS011;5655;48.744;9.162;2023-05-10T07:37:57;3.07;;;1.57;;
11197;SDS011;5655;48.744;9.162;2023-05-10T07:40:23;2.47;;;1.37;;
11197;SDS011;5655;48.744;9.162;2023-05-10T07:42:48;2.60;;;1.40;;
11197;SDS011;5655;48.744;9.162;2023-05-10T07:45:13;1.90;;;1.40;;
11197;SDS011;5655;48.744;9.162;2023-05-10T07:47:38;2.10;;;1.50;;
11197;SDS011;5655;48.744;9.162;2023-05-10T07:50:04;2.30;;;1.50;;
11197;SDS011;5655;48.744;9.162;2023-05-10T07:52:30;2.15;;;1.15;;
11197;SDS011;5655;48.744;9.162;2023-05-10T07:54:55;1.60;;;1.20;;
11197;SDS011;5655;48.744;9.162;2023-05-10T07:57:21;1.85;;;1.20;;
11197;SDS011;5655;48.744;9.162;2023-05-10T07:59:47;2.90;;;1.13;;
11197;SDS011;5655;48.744;9.162;2023-05-10T08:02:12;1.70;;;0.97;;
11197;SDS011;5655;48.744;9.162;2023-05-10T08:04:37;1.37;;;0.90;;
11197;SDS011;5655;48.744;9.162;2023-05-10T08:07:02;1.10;;;0.77;;
11197;SDS011;5655;48.744;9.162;2023-05-10T08:09:28;0.87;;;0.73;;
11197;SDS011;5655;48.744;9.162;2023-05-10T08:11:53;0.90;;;0.80;;
11197;SDS011;5655;48.744;9.162;2023-05-10T08:14:18;1.27;;;0.70;;
11197;SDS011;5655;48.744;9.162;2023-05-10T08:16:44;1.20;;;1.00;;
11197;SDS011;5655;48.744;9.162;2023-05-10T08:19:10;1.52;;;0.82;;
11197;SDS011;5655;48.744;9.162;2023-05-10T08:21:35;3.03;;;1.73;;
11197;SDS011;5655;48.744;9.162;2023-05-10T08:24:01;4.00;;;1.60;;
11197;SDS011;5655;48.744;9.162;2023-05-10T08:26:26;1.92;;;1.00;;
11197;SDS011;5655;48.744;9.162;2023-05-10T08:28:52;1.50;;;0.90;;
11197;SDS011;5655;48.744;9.162;2023-05-10T08:31:17;2.23;;;0.80;;
11197;SDS011;5655;48.744;9.162;2023-05-10T08:33:43;1.80;;;0.70;;
11197;SDS011;5655;48.744;9.162;2023-05-10T08:36:09;1.33;;;0.80;;
11197;SDS011;5655;48.744;9.162;2023-05-10T08:38:34;1.45;;;0.70;;
11197;SDS011;5655;48.744;9.162;2023-05-10T08:41:00;1.07;;;0.90;;
11197;SDS011;5655;48.744;9.162;2023-05-10T08:43:27;1.20;;;0.80;;
11197;SDS011;5655;48.744;9.162;2023-05-10T08:45:54;1.07;;;0.87;;
11197;SDS011;5655;48.744;9.162;2023-05-10T08:48:21;1.30;;;0.80;;
11197;SDS011;5655;48.744;9.162;2023-05-10T08:50:48;2.88;;;0.80;;
11197;SDS011;5655;48.744;9.162;2023-05-10T08:53:17;1.67;;;0.80;;
11197;SDS011;5655;48.744;9.162;2023-05-10T08:55:44;1.50;;;0.60;;
11197;SDS011;5655;48.744;9.162;2023-05-10T08:58:09;1.55;;;0.77;;
11197;SDS011;5655;48.744;9.162;2023-05-10T09:00:35;1.57;;;0.80;;
11197;SDS011;5655;48.744;9.162;2023-05-10T09:03:02;1.45;;;0.73;;
11197;SDS011;5655;48.744;9.162;2023-05-10T09:05:28;1.67;;;0.82;;
11197;SDS011;5655;48.744;9.162;2023-05-10T09:07:53;2.88;;;1.00;;
11197;SDS011;5655;48.744;9.162;2023-05-10T09:10:19;1.55;;;0.90;;
11197;SDS011;5655;48.744;9.162;2023-05-10T09:12:45;1.48;;;1.00;;
11197;SDS011;5655;48.744;9.162;2023-05-10T09:15:11;2.27;;;1.03;;
11197;SDS011;5655;48.744;9.162;2023-05-10T09:17:40;1.50;;;0.70;;
11197;SDS011;5655;48.744;9.162;2023-05-10T09:20:07;1.20;;;0.88;;
11197;SDS011;5655;48.744;9.162;2023-05-10T09:22:35;1.60;;;0.83;;
11197;SDS011;5655;48.744;9.162;2023-05-10T09:27:34;2.00;;;1.00;;
11197;SDS011;5655;48.744;9.162;2023-05-10T09:30:00;4.25;;;0.75;;
11197;SDS011;5655;48.744;9.162;2023-05-10T09:37:36;1.30;;;0.60;;
11197;SDS011;5655;48.744;9.162;2023-05-10T09:40:06;1.13;;;0.60;;
11197;SDS011;5655;48.744;9.162;2023-05-10T09:42:33;0.98;;;0.60;;
11197;SDS011;5655;48.744;9.162;2023-05-10T09:45:02;0.80;;;0.67;;
11197;SDS011;5655;48.744;9.162;2023-05-10T09:47:32;2.65;;;0.70;;
11197;SDS011;5655;48.744;9.162;2023-05-10T09:49:58;1.27;;;0.40;;
11197;SDS011;5655;48.744;9.162;2023-05-10T09:52:29;1.17;;;0.50;;
11197;SDS011;5655;48.744;9.162;2023-05-10T09:55:11;0.60;;;0.50;;
11197;SDS011;5655;48.744;9.162;2023-05-10T09:57:37;1.20;;;0.50;;
11197;SDS011;5655;48.744;9.162;2023-05-10T10:00:02;2.30;;;0.60;;
11197;SDS011;5655;48.744;9.162;2023-05-10T10:02:30;1.90;;;0.50;;
11197;SDS011;5655;48.744;9.162;2023-05-10T10:04:56;0.73;;;0.40;;
11197;SDS011;5655;48.744;9.162;2023-05-10T10:07:22;1.50;;;0.50;;
11197;SDS011;5655;48.744;9.162;2023-05-10T10:09:49;1.65;;;0.50;;
11197;SDS011;5655;48.744;9.162;2023-05-10T10:12:15;1.13;;;0.43;;
11197;SDS011;5655;48.744;9.162;2023-05-10T10:14:40;1.33;;;0.50;;
11197;SDS011;5655;48.744;9.162;2023-05-10T10:17:06;1.00;;;0.50;;
11197;SDS011;5655;48.744;9.162;2023-05-10T10:19:33;0.55;;;0.52;;
11197;SDS011;5655;48.744;9.162;2023-05-10T10:22:00;1.60;;;0.60;;
11197;SDS011;5655;48.744;9.162;2023-05-10T10:24:25;1.00;;;0.50;;
11197;SDS011;5655;48.744;9.162;2023-05-10T10:26:51;1.30;;;0.50;;
11197;SDS011;5655;48.744;9.162;2023-05-10T10:32:06;0.98;;;0.50;;
11197;SDS011;5655;48.744;9.162;2023-05-10T10:34:53;2.03;;;0.70;;
11197;SDS011;5655;48.744;9.162;2023-05-10T10:37:21;0.70;;;0.60;;
11197;SDS011;5655;48.744;9.162;2023-05-10T10:39:47;2.80;;;0.70;;
11197;SDS011;5655;48.744;9.162;2023-05-10T10:42:14;0.63;;;0.40;;
11197;SDS011;5655;48.744;9.162;2023-05-10T10:45:12;0.70;;;0.50;;
11197;SDS011;5655;48.744;9.162;2023-05-10T10:47:38;1.25;;;0.65;;
11197;SDS011;5655;48.744;9.162;2023-05-10T10:50:04;0.77;;;0.40;;
11197;SDS011;5655;48.744;9.162;2023-05-10T10:52:34;1.35;;;0.60;;
11197;SDS011;5655;48.744;9.162;2023-05-10T11:00:26;1.40;;;0.70;;
11197;SDS011;5655;48.744;9.162;2023-05-10T11:07:53;1.80;;;0.60;;
11197;SDS011;5655;48.744;9.162;2023-05-10T11:10:21;0.50;;;0.50;;
11197;SDS011;5655;48.744;9.162;2023-05-10T11:13:02;1.67;;;0.50;;
11197;SDS011;5655;48.744;9.162;2023-05-10T11:15:34;1.45;;;0.57;;
11197;SDS011;5655;48.744;9.162;2023-05-10T11:18:20;2.40;;;0.50;;
11197;SDS011;5655;48.744;9.162;2023-05-10T11:20:51;1.80;;;0.60;;
11197;SDS011;5655;48.744;9.162;2023-05-10T11:23:17;1.67;;;0.63;;
11197;SDS011;5655;48.744;9.162;2023-05-10T11:25:45;1.95;;;0.70;;
11197;SDS011;5655;48.744;9.162;2023-05-10T11:28:11;1.83;;;0.60;;
11197;SDS011;5655;48.744;9.162;2023-05-10T11:30:40;2.25;;;0.60;;
11197;SDS011;5655;48.744;9.162;2023-05-10T11:33:08;1.00;;;0.60;;
11197;SDS011;5655;48.744;9.162;2023-05-10T11:35:37;2.37;;;0.90;;
11197;SDS011;5655;48.744;9.162;2023-05-10T11:38:07;0.98;;;0.50;;
11197;SDS011;5655;48.744;9.162;2023-05-10T11:40:34;1.00;;;0.57;;
11197;SDS011;5655;48.744;9.162;2023-05-10T11:42:59;0.85;;;0.60;;
11197;SDS011;5655;48.744;9.162;2023-05-10T11:45:25;0.70;;;0.50;;
11197;SDS011;5655;48.744;9.162;2023-05-10T11:47:50;3.30;;;0.80;;
11197;SDS011;5655;48.744;9.162;2023-05-10T11:50:16;1.23;;;0.60;;
11197;SDS011;5655;48.744;9.162;2023-05-10T11:52:42;1.33;;;0.70;;
11197;SDS011;5655;48.744;9.162;2023-05-10T11:55:08;3.13;;;0.70;;
11197;SDS011;5655;48.744;9.162;2023-05-10T11:57:34;1.10;;;0.70;;
11197;SDS011;5655;48.744;9.162;2023-05-10T12:00:00;1.15;;;0.50;;
11197;SDS011;5655;48.744;9.162;2023-05-10T12:02:28;2.10;;;0.80;;
11197;SDS011;5655;48.744;9.162;2023-05-10T12:04:54;2.63;;;0.70;;
11197;SDS011;5655;48.744;9.162;2023-05-10T12:07:20;1.40;;;0.60;;
11197;SDS011;5655;48.744;9.162;2023-05-10T12:10:05;2.37;;;0.80;;
11197;SDS011;5655;48.744;9.162;2023-05-10T12:12:38;2.00;;;0.80;;
11197;SDS011;5655;48.744;9.162;2023-05-10T12:15:04;2.85;;;0.80;;
11197;SDS011;5655;48.744;9.162;2023-05-10T12:17:31;1.17;;;0.63;;
11197;SDS011;5655;48.744;9.162;2023-05-10T12:20:15;1.20;;;0.70;;
11197;SDS011;5655;48.744;9.162;2023-05-10T12:22:52;2.22;;;0.88;;
11197;SDS011;5655;48.744;9.162;2023-05-10T12:25:22;1.05;;;0.63;;
11197;SDS011;5655;48.744;9.162;2023-05-10T12:27:52;1.83;;;0.73;;
11197;SDS011;5655;48.744;9.162;2023-05-10T12:30:24;1.90;;;0.90;;
11197;SDS011;5655;48.744;9.162;2023-05-10T12:32:50;1.88;;;0.80;;
11197;SDS011;5655;48.744;9.162;2023-05-10T12:35:17;1.87;;;0.90;;
11197;SDS011;5655;48.744;9.162;2023-05-10T12:37:45;1.20;;;0.90;;
11197;SDS011;5655;48.744;9.162;2023-05-10T12:40:10;2.83;;;1.00;;
11197;SDS011;5655;48.744;9.162;2023-05-10T12:42:37;2.25;;;0.90;;
11197;SDS011;5655;48.744;9.162;2023-05-10T12:45:04;2.60;;;0.82;;
11197;SDS011;5655;48.744;9.162;2023-05-10T12:47:30;2.63;;;1.10;;
11197;SDS011;5655;48.744;9.162;2023-05-10T12:49:56;1.43;;;0.90;;
11197;SDS011;5655;48.744;9.162;2023-05-10T12:52:22;1.90;;;0.95;;
11197;SDS011;5655;48.744;9.162;2023-05-10T12:54:48;1.40;;;0.90;;
11197;SDS011;5655;48.744;9.162;2023-05-10T12:57:14;2.05;;;0.80;;
11197;SDS011;5655;48.744;9.162;2023-05-10T12:59:39;2.13;;;0.80;;
11197;SDS011;5655;48.744;9.162;2023-05-10T13:02:05;1.80;;;0.87;;
11197;SDS011;5655;48.744;9.162;2023-05-10T13:04:31;3.38;;;1.05;;
11197;SDS011;5655;48.744;9.162;2023-05-10T13:06:56;2.23;;;0.80;;
11197;SDS011;5655;48.744;9.162;2023-05-10T13:09:23;2.33;;;0.80;;
11197;SDS011;5655;48.744;9.162;2023-05-10T13:11:50;2.75;;;0.88;;
11197;SDS011;5655;48.744;9.162;2023-05-10T13:14:15;2.83;;;0.80;;
11197;SDS011;5655;48.744;9.162;2023-05-10T13:16:40;2.03;;;0.87;;
11197;SDS011;5655;48.744;9.162;2023-05-10T13:19:06;1.83;;;0.90;;
11197;SDS011;5655;48.744;9.162;2023-05-10T13:21:31;4.10;;;0.70;;
11197;SDS011;5655;48.744;9.162;2023-05-10T13:23:57;3.33;;;1.20;;
11197;SDS011;5655;48.744;9.162;2023-05-10T13:26:23;2.50;;;0.90;;
11197;SDS011;5655;48.744;9.162;2023-05-10T13:28:48;1.40;;;0.90;;
11197;SDS011;5655;48.744;9.162;2023-05-10T13:31:14;1.75;;;0.93;;
11197;SDS011;5655;48.744;9.162;2023-05-10T13:33:39;3.90;;;0.83;;
11197;SDS011;5655;48.744;9.162;2023-05-10T13:36:05;1.37;;;0.80;;
11197;SDS011;5655;48.744;9.162;2023-05-10T13:38:31;2.45;;;0.80;;
11197;SDS011;5655;48.744;9.162;2023-05-10T13:40:56;2.13;;;1.00;;
11197;SDS011;5655;48.744;9.162;2023-05-10T13:43:21;2.27;;;0.83;;
11197;SDS011;5655;48.744;9.162;2023-05-10T13:45:47;2.83;;;0.80;;
11197;SDS011;5655;48.744;9.162;2023-05-10T13:48:12;2.43;;;0.93;;
11197;SDS011;5655;48.744;9.162;2023-05-10T13:50:37;2.07;;;1.10;;
11197;SDS011;5655;48.744;9.162;2023-05-10T13:53:03;2.47;;;1.10;;
11197;SDS011;5655;48.744;9.162;2023-05-10T13:55:28;1.87;;;1.00;;
11197;SDS011;5655;48.744;9.162;2023-05-10T13:57:54;2.00;;;0.90;;
11197;SDS011;5655;48.744;9.162;2023-05-10T14:00:19;2.97;;;1.03;;
11197;SDS011;5655;48.744;9.162;2023-05-10T14:02:44;2.80;;;0.80;;
11197;SDS011;5655;48.744;9.162;2023-05-10T14:05:10;3.20;;;0.80;;
11197;SDS011;5655;48.744;9.162;2023-05-10T14:07:35;2.20;;;1.10;;
11197;SDS011;5655;48.744;9.162;2023-05-10T14:10:00;2.60;;;1.00;;
11197;SDS011;5655;48.744;9.162;2023-05-10T14:12:26;1.07;;;0.70;;
11197;SDS011;5655;48.744;9.162;2023-05-10T14:14:51;1.97;;;0.87;;
11197;SDS011;5655;48.744;9.162;2023-05-10T14:17:17;1.65;;;0.88;;
11197;SDS011;5655;48.744;9.162;2023-05-10T14:19:42;1.80;;;0.90;;
11197;SDS011;5655;48.744;9.162;2023-05-10T14:22:08;2.40;;;0.63;;
11197;SDS011;5655;48.744;9.162;2023-05-10T14:24:33;2.00;;;0.87;;
11197;SDS011;5655;48.744;9.162;2023-05-10T14:26:58;2.50;;;0.63;;
11197;SDS011;5655;48.744;9.162;2023-05-10T14:29:24;2.90;;;0.70;;
11197;SDS011;5655;48.744;9.162;2023-05-10T14:31:49;2.17;;;0.90;;
11197;SDS011;5655;48.744;9.162;2023-05-10T14:34:15;3.25;;;0.73;;
11197;SDS011;5655;48.744;9.162;2023-05-10T14:36:40;3.78;;;1.00;;
11197;SDS011;5655;48.744;9.162;2023-05-10T14:39:05;1.80;;;0.80;;
11197;SDS011;5655;48.744;9.162;2023-05-10T14:41:31;2.53;;;0.80;;
11197;SDS011;5655;48.744;9.162;2023-05-10T14:43:57;3.00;;;0.80;;
11197;SDS011;5655;48.744;9.162;2023-05-10T14:46:22;1.83;;;0.90;;
11197;SDS011;5655;48.744;9.162;2023-05-10T14:48:47;1.60;;;0.50;;
11197;SDS011;5655;48.744;9.162;2023-05-10T14:51:13;2.70;;;0.80;;
11197;SDS011;5655;48.744;9.162;2023-05-10T14:53:38;2.30;;;0.88;;
11197;SDS011;5655;48.744;9.162;2023-05-10T14:56:04;1.47;;;0.90;;
11197;SDS011;5655;48.744;9.162;2023-05-10T14:58:29;1.27;;;0.60;;
11197;SDS011;5655;48.744;9.162;2023-05-10T15:00:57;1.10;;;0.70;;
11197;SDS011;5655;48.744;9.162;2023-05-10T15:03:23;2.10;;;0.70;;
11197;SDS011;5655;48.744;9.162;2023-05-10T15:05:48;1.30;;;0.90;;
11197;SDS011;5655;48.744;9.162;2023-05-10T15:08:13;2.97;;;0.70;;
11197;SDS011;5655;48.744;9.162;2023-05-10T15:10:39;2.38;;;0.70;;
11197;SDS011;5655;48.744;9.162;2023-05-10T15:13:04;4.17;;;1.03;;
11197;SDS011;5655;48.744;9.162;2023-05-10T15:15:30;1.73;;;0.70;;
11197;SDS011;5655;48.744;9.162;2023-05-10T15:17:55;1.30;;;0.73;;
11197;SDS011;5655;48.744;9.162;2023-05-10T15:20:21;1.70;;;0.80;;
11197;SDS011;5655;48.744;9.162;2023-05-10T15:22:46;2.70;;;0.90;;
11197;SDS011;5655;48.744;9.162;2023-05-10T15:25:12;2.72;;;0.70;;
11197;SDS011;5655;48.744;9.162;2023-05-10T15:27:38;0.90;;;0.70;;
11197;SDS011;5655;48.744;9.162;2023-05-10T15:30:04;2.13;;;0.80;;
11197;SDS011;5655;48.744;9.162;2023-05-10T15:32:30;2.85;;;0.80;;
11197;SDS011;5655;48.744;9.162;2023-05-10T15:34:55;0.83;;;0.80;;
11197;SDS011;5655;48.744;9.162;2023-05-10T15:37:21;2.20;;;0.80;;